Latest Coastal Weather Observations for Holmes Reef

IDQ60701

Issued at 9:51 pm EST Tuesday 17 October 2017 (issued every 10 minutes, with the page automatically refreshed every 10 minutes)

About coastal observations | Map of coastal stations | Coastal observations for QLD | Marine services | Other Formats
Station Details ID: 200732 Name: HOLMES REEF Lat: -16.47 Lon: 147.87 Height: 1.9 m
Data from the previous 72 hours. | See also: Recent months at Holmes Reef
Date/Time
EST
Temp
°C
Wind Pressure Rain since
9am
mm
Weather Cloud Vis
km
Sea
Height
m
Swell
Dir  Spd
kts
Gust
kts
hPa Trend Height
m
Period
s
Dir
17/09:30pm 23.9 SSE 19 22 1010.5 - - - - - - - - -
17/09:15pm 24.1 SSE 17 - 1010.2 - - - - - - - - -
17/09:00pm 24.2 SSE 18 21 1010.3 - - - - - - - - -
17/08:30pm 23.9 SSE 17 19 1010.3 - - - - - - - - -
17/08:15pm 23.7 SSE 17 - 1010.0 - - - - - - - - -
17/08:00pm 23.5 SSE 21 24 1009.7 - - - - - - - - -
17/07:30pm 23.9 SSE 21 23 1009.7 - - - - - - - - -
17/07:15pm 23.9 SSE 19 - 1009.7 - - - - - - - - -
17/07:00pm 23.6 SSE 19 23 1009.9 - - - - - - - - -
17/06:30pm 23.1 SSE 20 22 1009.8 - - - - - - - - -
17/06:15pm 23.1 SSE 19 - 1009.4 - - - - - - - - -
17/06:00pm 22.8 SSE 19 21 1009.7 - - - - - - - - -
17/05:30pm 22.3 S 20 22 1009.2 - - - - - - - - -
17/05:15pm 22.2 S 20 - 1008.7 - - - - - - - - -
17/05:00pm 22.0 S 20 22 1008.9 - - - - - - - - -
17/04:30pm 22.4 S 20 24 1009.0 - - - - - - - - -
17/04:15pm 21.8 S 21 - 1008.8 - - - - - - - - -
17/04:00pm 21.7 S 22 25 1008.9 - - - - - - - - -
17/03:45pm 21.9 S 23 25 1008.7 - - - - - - - - -
17/03:30pm 22.1 SW 17 23 1008.9 - - - - - - - - -
17/03:15pm 23.1 S 16 - 1007.6 - - - - - - - - -
17/03:00pm 23.1 SSE 14 17 1007.8 - - - - - - - - -
17/02:30pm 22.8 ESE 16 19 1007.8 - - - - - - - - -
17/02:15pm 24.8 SE 18 - 1007.4 - - - - - - - - -
17/02:00pm 25.6 SE 17 19 1007.7 - - - - - - - - -
17/01:30pm 25.4 SE 16 18 1008.5 - - - - - - - - -
17/01:15pm 25.3 ESE 16 - 1008.1 - - - - - - - - -
17/01:00pm 25.5 ESE 16 19 1008.4 - - - - - - - - -
17/12:30pm 25.4 SE 15 17 1008.8 - - - - - - - - -
17/12:15pm 25.4 SE 16 - 1009.0 - - - - - - - - -
17/12:00pm 25.2 SE 17 19 1009.6 - - - - - - - - -
17/11:30am 25.3 ESE 16 18 1010.2 - - - - - - - - -
17/11:15am 25.1 ESE 16 - 1010.1 - - - - - - - - -
17/11:00am 25.0 ESE 17 20 1010.7 - - - - - - - - -
17/10:30am 25.3 SE 17 19 1010.4 - - - - - - - - -
17/10:15am 25.3 SE 17 - 1010.0 - - - - - - - - -
17/10:00am 25.4 SE 16 18 1010.7 - - - - - - - - -
17/09:30am 25.2 ESE 16 18 1011.4 - - - - - - - - -
17/09:15am 25.1 ESE 17 - 1011.1 - - - - - - - - -
17/09:00am 24.7 SE 18 19 1011.0 - - - - - - - - -
17/08:30am 24.8 ESE 17 19 1011.1 - - - - - - - - -
17/08:15am 24.9 SE 15 - 1011.1 - - - - - - - - -
17/08:00am 24.9 ESE 16 19 1011.0 - - - - - - - - -
17/07:30am 24.9 ESE 15 17 1010.9 - - - - - - - - -
17/07:15am 24.9 SE 15 - 1010.3 - - - - - - - - -
17/07:00am 25.0 SE 15 17 1010.3 - - - - - - - - -
17/06:30am 24.9 SE 13 15 1010.1 - - - - - - - - -
17/06:15am 24.7 ESE 13 - 1009.5 - - - - - - - - -
17/06:00am 24.7 ESE 14 16 1009.5 - - - - - - - - -
17/05:30am 24.6 SE 16 17 1008.3 - - - - - - - - -
17/05:15am 24.7 SE 16 - 1007.9 - - - - - - - - -
17/05:00am 24.5 SE 16 17 1008.1 - - - - - - - - -
17/04:30am 24.3 SSE 14 16 1007.9 - - - - - - - - -
17/04:15am 24.5 SSE 15 - 1007.4 - - - - - - - - -
17/04:00am 24.4 SE 17 19 1007.7 - - - - - - - - -
17/03:30am 24.8 SE 12 15 1007.8 - - - - - - - - -
17/03:15am 24.2 SE 15 - 1007.4 - - - - - - - - -
17/03:00am 24.6 SE 17 18 1007.1 - - - - - - - - -
17/02:30am 24.9 E 12 14 1008.2 - - - - - - - - -
17/02:15am 25.0 E 13 - 1008.6 - - - - - - - - -
17/02:00am 25.1 E 16 18 1009.1 - - - - - - - - -
17/01:30am 25.6 SE 15 17 1009.0 - - - - - - - - -
17/01:15am 25.7 ESE 15 - 1009.0 - - - - - - - - -
17/01:00am 25.6 SE 14 16 1009.4 - - - - - - - - -
17/12:30am 25.6 SE 14 16 1010.2 - - - - - - - - -
17/12:15am 25.5 SE 14 - 1009.9 - - - - - - - - -
17/12:00am 25.5 SE 14 17 1010.6 - - - - - - - - -
 
Date/Time
EST
Temp
°C
Wind Pressure Rain since
9am
mm
Weather Cloud Vis
km
Sea
Height
m
Swell
Dir  Spd
kts
Gust
kts
hPa Trend Height
m
Period
s
Dir
16/11:30pm 25.6 SSE 13 14 1011.2 - - - - - - - - -
16/11:15pm 25.8 SSE 13 - 1010.7 - - - - - - - - -
16/11:00pm 25.8 SE 14 15 1011.1 - - - - - - - - -
16/10:30pm 25.8 SSE 12 14 1011.2 - - - - - - - - -
16/10:15pm 25.8 SE 12 - 1010.8 - - - - - - - - -
16/10:00pm 25.9 SE 12 14 1011.0 - - - - - - - - -
16/09:30pm 25.8 SE 13 14 1010.6 - - - - - - - - -
16/09:15pm 26.0 ESE 13 - 1010.0 - - - - - - - - -
16/09:00pm 25.8 SE 12 13 1010.4 - - - - - - - - -
16/08:30pm 25.7 SE 14 15 1010.2 - - - - - - - - -
16/08:15pm 26.0 SE 14 - 1009.7 - - - - - - - - -
16/08:00pm 25.9 SE 13 15 1009.8 - - - - - - - - -
16/07:30pm 25.9 SE 12 14 1009.9 - - - - - - - - -
16/07:15pm 25.8 SE 12 - 1009.3 - - - - - - - - -
16/07:00pm 25.9 SE 12 14 1009.2 - - - - - - - - -
16/06:30pm 25.8 SE 12 13 1008.8 - - - - - - - - -
16/06:15pm 25.8 SE 12 - 1008.5 - - - - - - - - -
16/06:00pm 25.9 SE 12 14 1008.7 - - - - - - - - -
16/05:30pm 25.9 SE 12 13 1008.4 - - - - - - - - -
16/05:15pm 26.0 SE 11 - 1008.2 - - - - - - - - -
16/05:00pm 25.9 SE 12 14 1008.2 - - - - - - - - -
16/04:30pm 25.9 SE 12 14 1007.8 - - - - - - - - -
16/04:15pm 25.9 SE 12 - 1007.5 - - - - - - - - -
16/04:00pm 26.0 SE 13 14 1007.5 - - - - - - - - -
16/03:30pm 25.9 ESE 11 12 1008.0 - - - - - - - - -
16/03:15pm 26.0 ESE 11 - 1007.8 - - - - - - - - -
16/03:00pm 26.0 SE 10 12 1008.3 - - - - - - - - -
16/02:30pm 26.2 SE 10 11 1008.6 - - - - - - - - -
16/02:15pm 26.0 SE 11 - 1008.2 - - - - - - - - -
16/02:00pm 26.1 SE 12 13 1008.3 - - - - - - - - -
16/01:30pm 26.1 SE 10 11 1008.8 - - - - - - - - -
16/01:15pm 26.0 ESE 11 - 1008.6 - - - - - - - - -
16/01:00pm 26.2 ESE 11 13 1008.9 - - - - - - - - -
16/12:30pm 26.2 ESE 11 13 1009.3 - - - - - - - - -
16/12:15pm 26.0 ESE 12 - 1009.1 - - - - - - - - -
16/12:00pm 25.9 ESE 12 13 1009.6 - - - - - - - - -
16/11:30am 25.9 ESE 13 15 1009.8 - - - - - - - - -
16/11:15am 26.0 ESE 13 - 1009.7 - - - - - - - - -
16/11:00am 26.1 ESE 14 16 1010.2 - - - - - - - - -
16/10:30am 26.1 E 15 17 1010.3 - - - - - - - - -
16/10:15am 25.9 E 14 - 1010.2 - - - - - - - - -
16/10:00am 25.8 ESE 15 19 1010.4 - - - - - - - - -
16/09:30am 25.3 ESE 16 18 1010.1 - - - - - - - - -
16/09:15am 25.5 ESE 17 - 1009.8 - - - - - - - - -
16/09:00am 25.1 ESE 17 19 1010.1 - - - - - - - - -
16/08:30am 25.4 ESE 18 21 1009.6 - - - - - - - - -
16/08:15am 25.3 ESE 18 - 1009.5 - - - - - - - - -
16/08:00am 25.5 ESE 18 21 1009.8 - - - - - - - - -
16/07:30am 24.7 SE 18 20 1009.4 - - - - - - - - -
16/07:15am 24.5 SE 19 - 1009.1 - - - - - - - - -
16/07:00am 24.1 SE 17 20 1009.7 - - - - - - - - -
16/06:43am 23.8 SSE 15 18 1010.4 - - - - - - - - -
16/06:30am 23.8 S 20 23 1010.5 - - - - - - - - -
16/06:15am 23.7 S 20 - 1009.9 - - - - - - - - -
16/06:00am 23.9 S 22 25 1010.7 - - - - - - - - -
16/05:35am 24.3 S 20 22 1010.6 - - - - - - - - -
16/05:30am 25.8 SSE 15 17 1010.2 - - - - - - - - -
16/05:15am 25.6 SE 14 - 1009.6 - - - - - - - - -
16/05:00am 25.7 SE 15 16 1010.0 - - - - - - - - -
16/04:30am 25.7 SE 15 17 1009.3 - - - - - - - - -
16/04:15am 25.7 SE 15 - 1008.6 - - - - - - - - -
16/04:00am 25.7 SE 14 16 1008.9 - - - - - - - - -
16/03:30am 25.7 SE 12 13 1008.8 - - - - - - - - -
16/03:15am 25.8 ESE 11 - 1008.6 - - - - - - - - -
16/03:00am 25.7 ESE 13 14 1008.7 - - - - - - - - -
16/02:30am 25.7 ESE 13 15 1008.7 - - - - - - - - -
16/02:15am 25.7 ESE 14 - 1008.4 - - - - - - - - -
16/02:00am 25.8 SE 14 16 1008.9 - - - - - - - - -
16/01:30am 25.9 ESE 14 15 1009.0 - - - - - - - - -
16/01:15am 25.9 ESE 13 - 1008.7 - - - - - - - - -
16/01:00am 25.9 ESE 13 15 1009.1 - - - - - - - - -
16/12:30am 25.8 ESE 13 15 1009.3 - - - - - - - - -
16/12:15am 26.0 ESE 14 - 1009.2 - - - - - - - - -
16/12:00am 25.9 ESE 15 16 1009.4 - - - - - - - - -
 
Date/Time
EST
Temp
°C
Wind Pressure Rain since
9am
mm
Weather Cloud Vis
km
Sea
Height
m
Swell
Dir  Spd
kts
Gust
kts
hPa Trend Height
m
Period
s
Dir
15/11:30pm 25.8 ESE 15 17 1009.4 - - - - - - - - -
15/11:15pm 25.9 ESE 15 - 1009.1 - - - - - - - - -
15/11:00pm 26.0 ESE 14 16 1009.4 - - - - - - - - -
15/10:30pm 25.9 SE 16 18 1009.4 - - - - - - - - -
15/10:15pm 25.9 SE 17 - 1009.0 - - - - - - - - -
15/10:00pm 25.9 SE 15 17 1009.4 - - - - - - - - -
15/09:30pm 25.9 ESE 16 17 1009.3 - - - - - - - - -
15/09:15pm 25.9 SE 15 - 1008.9 - - - - - - - - -
15/09:00pm 25.9 SE 15 17 1009.1 - - - - - - - - -
15/08:30pm 25.9 SE 13 14 1009.1 - - - - - - - - -
15/08:15pm 26.0 SE 14 - 1008.7 - - - - - - - - -
15/08:00pm 26.0 SE 14 15 1008.8 - - - - - - - - -
15/07:30pm 25.9 SE 14 17 1008.5 - - - - - - - - -
15/07:15pm 25.7 SE 14 - 1008.1 - - - - - - - - -
15/07:00pm 25.8 SE 14 16 1008.2 - - - - - - - - -
15/06:30pm 25.8 SE 14 16 1007.8 - - - - - - - - -
15/06:15pm 25.9 SE 12 - 1007.3 - - - - - - - - -
15/06:00pm 25.9 SE 13 14 1007.4 - - - - - - - - -
15/05:30pm 26.0 SE 12 14 1006.9 - - - - - - - - -
15/05:15pm 25.9 SE 13 - 1006.6 - - - - - - - - -
15/05:00pm 26.0 SE 12 13 1006.9 - - - - - - - - -
15/04:30pm 26.1 SE 11 13 1006.9 - - - - - - - - -
15/04:15pm 26.1 SE 11 - 1006.7 - - - - - - - - -
15/04:00pm 26.1 SE 11 13 1007.0 - - - - - - - - -
15/03:30pm 26.2 SE 11 12 1007.4 - - - - - - - - -
15/03:15pm 26.3 SE 11 - 1007.1 - - - - - - - - -
15/03:00pm 26.3 SE 11 13 1007.4 - - - - - - - - -
15/02:30pm 26.3 SSE 11 13 1007.8 - - - - - - - - -
15/02:15pm 26.5 SSE 11 - 1007.5 - - - - - - - - -
15/02:00pm 26.5 SSE 11 12 1008.1 - - - - - - - - -
15/01:30pm 26.1 SE 10 11 1008.2 - - - - - - - - -
15/01:15pm 26.1 SE 10 - 1008.1 - - - - - - - - -
15/01:00pm 26.3 SE 10 12 1008.7 - - - - - - - - -
15/12:30pm 26.3 SE 10 11 1009.2 - - - - - - - - -
15/12:15pm 26.1 SE 10 - 1009.0 - - - - - - - - -
15/12:00pm 26.3 SE 9 11 1009.5 - - - - - - - - -
15/11:30am 26.2 SE 10 11 1009.8 - - - - - - - - -
15/11:15am 26.2 SE 9 - 1009.7 - - - - - - - - -
15/11:00am 26.3 ESE 10 11 1010.1 - - - - - - - - -
15/10:30am 26.3 ESE 10 11 1010.3 - - - - - - - - -
15/10:15am 26.2 SE 10 - 1010.2 - - - - - - - - -
15/10:00am 26.2 ESE 10 11 1010.5 - - - - - - - - -
15/09:30am 26.2 ESE 11 12 1010.6 - - - - - - - - -
15/09:15am 26.1 ESE 10 - 1010.2 - - - - - - - - -
15/09:00am 26.2 ESE 11 13 1010.6 - - - - - - - - -
15/08:30am 26.1 ESE 12 14 1010.3 - - - - - - - - -
15/08:15am 26.0 ESE 12 - 1010.0 - - - - - - - - -
15/08:00am 26.0 ESE 13 14 1010.2 - - - - - - - - -
15/07:30am 25.8 SE 12 15 1010.1 - - - - - - - - -
15/07:15am 26.0 ESE 12 - 1009.7 - - - - - - - - -
15/07:00am 26.0 ESE 10 12 1010.0 - - - - - - - - -
15/06:30am 25.8 ESE 11 13 1009.5 - - - - - - - - -
15/06:15am 25.6 ESE 12 - 1009.0 - - - - - - - - -
15/06:00am 25.8 ESE 12 13 1009.1 - - - - - - - - -
15/05:30am 25.6 ESE 14 15 1008.8 - - - - - - - - -
15/05:15am 25.6 ESE 14 - 1008.4 - - - - - - - - -
15/05:00am 25.6 ESE 14 15 1008.5 - - - - - - - - -
15/04:30am 25.5 ESE 13 15 1008.6 - - - - - - - - -
15/04:15am 25.5 ESE 14 - 1008.3 - - - - - - - - -
15/04:00am 25.6 ESE 14 15 1008.4 - - - - - - - - -
15/03:30am 25.7 ESE 14 16 1008.4 - - - - - - - - -
15/03:15am 25.5 ESE 13 - 1008.1 - - - - - - - - -
15/03:00am 25.5 ESE 13 16 1008.3 - - - - - - - - -
15/02:30am 25.5 ESE 14 15 1008.3 - - - - - - - - -
15/02:15am 25.6 E 13 - 1008.2 - - - - - - - - -
15/02:00am 25.6 ESE 14 15 1008.6 - - - - - - - - -
15/01:30am 25.6 ESE 15 17 1008.9 - - - - - - - - -
15/01:15am 25.6 ESE 14 - 1008.7 - - - - - - - - -
15/01:00am 25.6 ESE 14 16 1009.3 - - - - - - - - -
15/12:30am 25.9 ESE 15 17 1009.6 - - - - - - - - -
15/12:15am 25.7 ESE 15 - 1009.4 - - - - - - - - -
15/12:00am 25.8 E 16 18 1009.8 - - - - - - - - -
 
Date/Time
EST
Temp
°C
Wind Pressure Rain since
9am
mm
Weather Cloud Vis
km
Sea
Height
m
Swell
Dir  Spd
kts
Gust
kts
hPa Trend Height
m
Period
s
Dir
14/11:30pm 25.7 E 16 18 1010.0 - - - - - - - - -
14/11:15pm 25.8 ESE 16 - 1009.6 - - - - - - - - -
14/11:00pm 25.9 E 17 18 1009.9 - - - - - - - - -
14/10:30pm 25.8 E 17 19 1009.9 - - - - - - - - -
14/10:15pm 26.0 ESE 15 - 1009.8 - - - - - - - - -
14/10:00pm 26.0 ESE 16 18 1010.1 - - - - - - - - -

Other Formats:

Comma delimited format used in spreadsheet applications
http://www.bom.gov.au/fwo/IDQ60701/IDQ60701.94289.axf

JavaScript Object Notation format (JSON) in row-major order
http://www.bom.gov.au/fwo/IDQ60701/IDQ60701.94289.json